Time;durP1;ratioP1;P1;durP2;ratioP2;P2;SDS_P1;SDS_P2;PMS_P1;PMS_P2;Temp;Humidity;BMP_temperature;BMP_pressure;BME280_temperature;BME280_humidity;BME280_pressure;Samples;Min_cycle;Max_cycle;Signal;HPM_P1;HPM_P2
2023/12/29 00:01:18;;;;;;;15.30;5.00;;;;;;;-146.58;100.00;69501.63;5041675;28;20029;-62
2023/12/29 00:03:44;;;;;;;17.88;5.22;;;;;;;-146.58;100.00;69501.63;5040126;28;20025;-62
2023/12/29 00:06:09;;;;;;;15.63;6.55;;;;;;;-146.58;100.00;69501.63;5053530;28;20036;-62
2023/12/29 00:08:36;;;;;;;10.93;4.72;;;;;;;-146.58;100.00;69501.63;5053529;28;20029;-63
2023/12/29 00:11:02;;;;;;;8.18;4.43;;;;;;;-146.58;100.00;69501.63;5051861;28;20135;-62
2023/12/29 00:13:27;;;;;;;10.05;4.55;;;;;;;-146.58;100.00;69501.63;5053308;28;20033;-63
2023/12/29 00:15:53;;;;;;;13.38;4.30;;;;;;;-146.58;100.00;69501.63;5045679;28;20531;-62
2023/12/29 00:18:19;;;;;;;10.70;3.78;;;;;;;-146.58;100.00;69501.63;5043610;28;20154;-62
2023/12/29 00:20:44;;;;;;;13.18;4.47;;;;;;;-146.58;100.00;69501.63;5051849;28;20145;-62
2023/12/29 00:23:10;;;;;;;13.95;4.47;;;;;;;-146.58;100.00;69501.63;5053410;28;20029;-63
2023/12/29 00:25:36;;;;;;;13.50;4.45;;;;;;;-146.58;100.00;69501.63;5051226;28;20037;-62
2023/12/29 00:28:02;;;;;;;13.23;4.63;;;;;;;-146.58;100.00;69501.63;5040253;28;20033;-63
2023/12/29 00:30:29;;;;;;;12.73;4.90;;;;;;;-146.58;100.00;69501.63;5030306;28;20631;-62
2023/12/29 00:32:55;;;;;;;10.68;4.03;;;;;;;-146.58;100.00;69501.63;5033155;28;20042;-62
2023/12/29 00:35:20;;;;;;;9.98;2.50;;;;;;;-146.58;100.00;69501.63;5031827;28;20033;-63
2023/12/29 00:37:45;;;;;;;10.68;4.05;;;;;;;-146.58;100.00;69501.63;5032941;28;20408;-62
2023/12/29 00:40:11;;;;;;;24.42;3.88;;;;;;;-146.58;100.00;69501.63;5031385;28;20061;-62
2023/12/29 00:42:37;;;;;;;22.13;6.57;;;;;;;-146.58;100.00;69501.63;5033246;28;20388;-62
2023/12/29 00:45:02;;;;;;;11.85;4.13;;;;;;;-146.58;100.00;69501.63;5031746;28;20152;-62
2023/12/29 00:47:28;;;;;;;8.43;3.67;;;;;;;-146.58;100.00;69501.63;5051359;28;20028;-63
2023/12/29 00:49:53;;;;;;;14.75;4.80;;;;;;;-146.58;100.00;69501.63;5051468;28;20056;-62
2023/12/29 00:52:19;;;;;;;6.88;3.20;;;;;;;-146.58;100.00;69501.63;5053008;28;20021;-63
2023/12/29 00:54:44;;;;;;;10.68;3.28;;;;;;;-146.58;100.00;69501.63;5048460;28;20037;-62
2023/12/29 00:57:09;;;;;;;14.55;5.53;;;;;;;-146.58;100.00;69501.63;5032871;28;20480;-62
2023/12/29 00:59:37;;;;;;;8.05;4.00;;;;;;;-146.58;100.00;69501.63;5037400;28;20052;-63
2023/12/29 01:02:03;;;;;;;10.65;4.20;;;;;;;-146.58;100.00;69501.63;5052271;28;20036;-62
2023/12/29 01:04:28;;;;;;;13.55;3.88;;;;;;;-146.58;100.00;69501.63;5050812;28;20040;-62
2023/12/29 01:06:54;;;;;;;11.02;3.55;;;;;;;-146.58;100.00;69501.63;5052556;28;20025;-62
2023/12/29 01:09:19;;;;;;;9.15;4.10;;;;;;;-146.58;100.00;69501.63;5050621;28;20484;-62
2023/12/29 01:11:44;;;;;;;10.70;5.43;;;;;;;-146.58;100.00;69501.63;5052409;28;20070;-62
2023/12/29 01:14:10;;;;;;;8.65;3.95;;;;;;;-146.58;100.00;69501.63;5045262;28;20041;-61
2023/12/29 01:16:35;;;;;;;8.88;3.22;;;;;;;-146.58;100.00;69501.63;5031941;28;20046;-63
2023/12/29 01:19:01;;;;;;;10.02;2.80;;;;;;;-146.58;100.00;69501.63;5031285;28;20034;-63
2023/12/29 01:21:26;;;;;;;12.93;3.47;;;;;;;-146.58;100.00;69501.63;5032388;28;20021;-63
2023/12/29 01:23:51;;;;;;;16.33;3.80;;;;;;;-146.58;100.00;69501.63;5030500;28;20048;-63
2023/12/29 01:26:17;;;;;;;7.82;3.90;;;;;;;-146.58;100.00;69501.63;5032347;28;20436;-63
2023/12/29 01:28:42;;;;;;;10.48;5.15;;;;;;;-146.58;100.00;69501.63;5046410;28;20033;-62
2023/12/29 01:31:08;;;;;;;8.23;3.70;;;;;;;-146.58;100.00;69501.63;5051654;28;20013;-62
2023/12/29 01:33:34;;;;;;;7.15;3.38;;;;;;;-146.58;100.00;69501.63;5052045;28;20077;-63
2023/12/29 01:36:00;;;;;;;7.50;3.95;;;;;;;-146.58;100.00;69501.63;5050348;28;20805;-63
2023/12/29 01:38:25;;;;;;;5.50;2.58;;;;;;;-146.58;100.00;69501.63;5051312;28;20045;-63
2023/12/29 01:40:50;;;;;;;10.32;4.38;;;;;;;-146.58;100.00;69501.63;5050650;28;20040;-63
2023/12/29 01:43:16;;;;;;;17.05;4.03;;;;;;;-146.58;100.00;69501.63;5051828;28;20032;-63
2023/12/29 01:45:41;;;;;;;10.20;2.83;;;;;;;-146.58;100.00;69501.63;5031889;28;20144;-63
2023/12/29 01:48:08;;;;;;;6.50;2.78;;;;;;;-146.58;100.00;69501.63;5031708;28;20029;-63
2023/12/29 01:50:34;;;;;;;8.25;3.17;;;;;;;-146.58;100.00;69501.63;5029722;28;20147;-63
2023/12/29 01:53:03;;;;;;;7.45;2.67;;;;;;;-146.58;100.00;69501.63;5031885;28;20116;-63
2023/12/29 01:55:29;;;;;;;9.73;3.97;;;;;;;-146.58;100.00;69501.63;5035383;28;20099;-63
2023/12/29 01:57:55;;;;;;;13.35;4.28;;;;;;;-146.58;100.00;69501.63;5051747;28;20028;-63
2023/12/29 02:00:21;;;;;;;9.27;5.25;;;;;;;-146.58;100.00;69501.63;5050035;28;20079;-63
2023/12/29 02:02:47;;;;;;;11.32;4.50;;;;;;;-146.58;100.00;69501.63;5051091;28;20048;-62
2023/12/29 02:05:15;;;;;;;11.43;4.57;;;;;;;-146.58;100.00;69501.63;5050091;28;20654;-62
2023/12/29 02:07:41;;;;;;;8.85;5.43;;;;;;;-146.58;100.00;69501.63;5051450;28;20021;-63
2023/12/29 02:10:07;;;;;;;10.25;4.18;;;;;;;-146.58;100.00;69501.63;5049273;28;20041;-63
2023/12/29 02:12:36;;;;;;;12.50;4.28;;;;;;;-146.58;100.00;69501.63;5034332;28;20087;-62
2023/12/29 02:15:02;;;;;;;14.88;4.50;;;;;;;-146.58;100.00;69501.63;5030178;28;20041;-63
2023/12/29 02:17:35;;;;;;;20.15;4.60;;;;;;;-146.58;100.00;69501.63;5030777;28;20037;-62
2023/12/29 02:20:00;;;;;;;10.75;3.72;;;;;;;-146.58;100.00;69501.63;5029855;28;20432;-63
2023/12/29 02:22:26;;;;;;;9.75;3.70;;;;;;;-146.58;100.00;69501.63;5046588;28;20032;-62
2023/12/29 02:24:51;;;;;;;9.30;3.72;;;;;;;-146.58;100.00;69501.63;5048880;28;20036;-63
2023/12/29 02:27:54;;;;;;;10.77;5.05;;;;;;;-146.58;100.00;69501.63;5031046;28;20033;-62
2023/12/29 02:30:36;;;;;;;5.07;2.75;;;;;;;-146.58;100.00;69501.63;5030303;28;20087;-62
2023/12/29 02:33:05;;;;;;;12.95;3.45;;;;;;;-146.58;100.00;69501.63;5031298;28;20120;-63
2023/12/29 02:35:35;;;;;;;7.55;4.30;;;;;;;-146.58;100.00;69501.63;5029403;28;20155;-63
2023/12/29 02:38:01;;;;;;;14.02;3.25;;;;;;;-146.58;100.00;69501.63;5030615;28;20037;-63
2023/12/29 02:40:26;;;;;;;10.32;3.83;;;;;;;-146.58;100.00;69501.63;5030597;28;20132;-63
2023/12/29 02:42:52;;;;;;;9.07;3.25;;;;;;;-146.58;100.00;69501.63;5051322;28;20079;-62
2023/12/29 02:45:18;;;;;;;10.25;4.25;;;;;;;-146.58;100.00;69501.63;5048876;28;20037;-62
2023/12/29 02:47:44;;;;;;;16.17;5.45;;;;;;;-146.58;100.00;69501.63;5035502;28;20029;-63
2023/12/29 02:50:10;;;;;;;9.60;4.05;;;;;;;-146.58;100.00;69501.63;5041623;28;20044;-62
2023/12/29 02:52:36;;;;;;;7.97;4.03;;;;;;;-146.58;100.00;69501.63;5050308;28;20025;-62
2023/12/29 02:55:01;;;;;;;11.27;3.88;;;;;;;-146.58;100.00;69501.63;5048562;28;20063;-62
2023/12/29 02:57:26;;;;;;;12.77;3.80;;;;;;;-146.58;100.00;69501.63;5050592;28;20062;-62
2023/12/29 02:59:52;;;;;;;12.30;4.53;;;;;;;-146.58;100.00;69501.63;5048821;28;20407;-63
2023/12/29 03:02:19;;;;;;;8.40;3.60;;;;;;;-146.58;100.00;69501.63;5050595;28;20033;-62
2023/12/29 03:04:44;;;;;;;8.70;4.20;;;;;;;-146.58;100.00;69501.63;5047600;28;20037;-63
2023/12/29 03:07:10;;;;;;;11.63;4.32;;;;;;;-146.58;100.00;69501.63;5030287;28;20436;-63
2023/12/29 03:09:35;;;;;;;10.82;4.60;;;;;;;-146.58;100.00;69501.63;5029223;28;20042;-63
2023/12/29 03:12:00;;;;;;;13.60;3.47;;;;;;;-146.58;100.00;69501.63;5031052;28;20033;-63
2023/12/29 03:14:26;;;;;;;6.03;3.42;;;;;;;-146.58;100.00;69501.63;5028763;28;20034;-63
2023/12/29 03:16:51;;;;;;;11.25;3.95;;;;;;;-146.58;100.00;69501.63;5030736;28;20021;-63
2023/12/29 03:19:17;;;;;;;6.60;3.60;;;;;;;-146.58;100.00;69501.63;5034818;28;20500;-62
2023/12/29 03:21:42;;;;;;;15.00;4.82;;;;;;;-146.58;100.00;69501.63;5050387;28;20024;-63
2023/12/29 03:24:07;;;;;;;9.88;4.60;;;;;;;-146.58;100.00;69501.63;5052115;28;20036;-63
2023/12/29 03:26:33;;;;;;;14.77;4.57;;;;;;;-146.58;100.00;69501.63;5054140;28;20032;-63
2023/12/29 03:28:59;;;;;;;8.68;3.25;;;;;;;-146.58;100.00;69501.63;5052895;28;20043;-63
2023/12/29 03:31:24;;;;;;;9.82;4.03;;;;;;;-146.58;100.00;69501.63;5053679;28;20526;-62
2023/12/29 03:33:50;;;;;;;14.48;5.82;;;;;;;-146.58;100.00;69501.63;5052631;28;20033;-62
2023/12/29 03:36:15;;;;;;;9.48;5.45;;;;;;;-146.58;100.00;69501.63;5046028;28;20040;-63
2023/12/29 03:38:41;;;;;;;21.85;6.65;;;;;;;-146.58;100.00;69501.63;5031997;28;20235;-62
2023/12/29 03:41:06;;;;;;;12.00;3.88;;;;;;;-146.58;100.00;69501.63;5034672;28;20026;-62
2023/12/29 03:43:32;;;;;;;15.80;6.00;;;;;;;-146.58;100.00;69501.63;5033815;28;20077;-63
2023/12/29 03:45:58;;;;;;;13.45;5.15;;;;;;;-146.58;100.00;69501.63;5032422;28;20049;-62
2023/12/29 03:48:23;;;;;;;12.77;5.90;;;;;;;-146.58;100.00;69501.63;5048260;28;20389;-63
2023/12/29 03:50:49;;;;;;;18.60;4.50;;;;;;;-146.58;100.00;69501.63;5052724;28;20068;-63
2023/12/29 03:53:17;;;;;;;15.40;5.78;;;;;;;-146.58;100.00;69501.63;5053584;28;20029;-63
2023/12/29 03:55:42;;;;;;;12.13;5.15;;;;;;;-146.58;100.00;69501.63;5052400;28;20033;-63
2023/12/29 03:58:07;;;;;;;18.08;4.88;;;;;;;-146.58;100.00;69501.63;5053938;28;20025;-63
2023/12/29 04:00:33;;;;;;;22.45;5.80;;;;;;;-146.58;100.00;69501.63;5051689;28;20041;-63
2023/12/29 04:02:58;;;;;;;29.67;7.78;;;;;;;-146.58;100.00;69501.63;5040782;28;20464;-63
2023/12/29 04:05:24;;;;;;;10.70;5.55;;;;;;;-146.58;100.00;69501.63;5032781;28;20071;-64
2023/12/29 04:07:49;;;;;;;21.45;5.88;;;;;;;-146.58;100.00;69501.63;5053268;28;20139;-63
2023/12/29 04:10:14;;;;;;;9.23;4.03;;;;;;;-146.58;100.00;69501.63;5046101;28;20397;-63
2023/12/29 04:12:40;;;;;;;17.98;7.07;;;;;;;-146.58;100.00;69501.63;5033596;28;20029;-59
2023/12/29 04:15:06;;;;;;;7.45;3.78;;;;;;;-146.58;100.00;69501.63;5031890;28;20045;-63
2023/12/29 04:17:31;;;;;;;10.70;4.65;;;;;;;-146.58;100.00;69501.63;5040703;28;20106;-62
2023/12/29 04:19:57;;;;;;;18.60;6.05;;;;;;;-146.58;100.00;69501.63;5052102;28;20033;-61
2023/12/29 04:22:22;;;;;;;11.90;4.00;;;;;;;-146.58;100.00;69501.63;5052928;28;20025;-62
2023/12/29 04:24:48;;;;;;;12.23;5.53;;;;;;;-146.58;100.00;69501.63;5052265;28;20041;-62
2023/12/29 04:27:14;;;;;;;14.85;4.97;;;;;;;-146.58;100.00;69501.63;5053063;28;20519;-63
2023/12/29 04:29:40;;;;;;;7.32;3.55;;;;;;;-146.58;100.00;69501.63;5051265;28;20488;-62
2023/12/29 04:32:06;;;;;;;18.92;5.47;;;;;;;-146.58;100.00;69501.63;5052983;28;20033;-63
2023/12/29 04:34:31;;;;;;;20.45;7.70;;;;;;;-146.58;100.00;69501.63;5050827;28;20033;-63
2023/12/29 04:36:56;;;;;;;15.07;6.93;;;;;;;-146.58;100.00;69501.63;5038774;28;20493;-63
2023/12/29 04:39:22;;;;;;;13.98;4.43;;;;;;;-146.58;100.00;69501.63;5031297;28;20042;-64
2023/12/29 04:41:47;;;;;;;16.17;4.55;;;;;;;-146.58;100.00;69501.63;5033142;28;20044;-64
2023/12/29 04:44:12;;;;;;;7.72;4.13;;;;;;;-146.58;100.00;69501.63;5031585;28;20041;-64
2023/12/29 04:46:38;;;;;;;17.05;4.70;;;;;;;-146.58;100.00;69501.63;5032906;28;20029;-64
2023/12/29 04:49:03;;;;;;;14.05;4.32;;;;;;;-146.58;100.00;69501.63;5031603;28;20038;-64
2023/12/29 04:51:29;;;;;;;17.70;6.65;;;;;;;-146.58;100.00;69501.63;5032689;28;20465;-65
2023/12/29 04:53:55;;;;;;;13.50;5.00;;;;;;;-146.58;100.00;69501.63;5031642;28;20358;-64
2023/12/29 04:56:20;;;;;;;14.13;5.13;;;;;;;-146.58;100.00;69501.63;5032721;28;20025;-63
2023/12/29 04:58:45;;;;;;;17.70;4.78;;;;;;;-146.58;100.00;69501.63;5030816;28;20014;-63
2023/12/29 05:01:11;;;;;;;24.42;7.68;;;;;;;-146.58;100.00;69501.63;5032910;28;20026;-63
2023/12/29 05:03:36;;;;;;;31.00;7.22;;;;;;;-146.58;100.00;69501.63;5032928;28;20419;-62
2023/12/29 05:06:02;;;;;;;21.65;7.35;;;;;;;-146.58;100.00;69501.63;5036076;28;20037;-63
2023/12/29 05:08:27;;;;;;;23.98;6.78;;;;;;;-146.58;100.00;69501.63;5052416;28;20120;-62
2023/12/29 05:10:52;;;;;;;16.80;6.55;;;;;;;-146.58;100.00;69501.63;5051063;28;20059;-63
2023/12/29 05:13:18;;;;;;;13.68;6.78;;;;;;;-146.58;100.00;69501.63;5037868;28;20086;-63
2023/12/29 05:15:44;;;;;;;17.27;5.40;;;;;;;-146.58;100.00;69501.63;5029810;28;20041;-63
2023/12/29 05:18:09;;;;;;;22.67;6.28;;;;;;;-146.58;100.00;69501.63;5031268;28;20036;-62
2023/12/29 05:20:34;;;;;;;14.73;5.70;;;;;;;-146.58;100.00;69501.63;5029708;28;20045;-62
2023/12/29 05:23:00;;;;;;;12.98;4.88;;;;;;;-146.58;100.00;69501.63;5032340;28;20037;-62
2023/12/29 05:25:26;;;;;;;12.90;5.28;;;;;;;-146.58;100.00;69501.63;5030436;28;20052;-64
2023/12/29 05:27:51;;;;;;;12.77;3.50;;;;;;;-146.58;100.00;69501.63;5032711;28;20064;-59
2023/12/29 05:30:17;;;;;;;11.90;4.82;;;;;;;-146.58;100.00;69501.63;5030781;28;20052;-59
2023/12/29 05:32:42;;;;;;;18.27;6.38;;;;;;;-146.58;100.00;69501.63;5032334;28;20026;-60
2023/12/29 05:35:07;;;;;;;14.75;5.07;;;;;;;-146.58;100.00;69501.63;5030566;28;20050;-59
2023/12/29 05:37:33;;;;;;;12.02;4.82;;;;;;;-146.58;100.00;69501.63;5031712;28;20116;-59
2023/12/29 05:39:58;;;;;;;15.75;4.35;;;;;;;-146.58;100.00;69501.63;5030723;28;20041;-59
2023/12/29 05:42:23;;;;;;;13.43;5.75;;;;;;;-146.58;100.00;69501.63;5037444;28;20040;-59
2023/12/29 05:44:49;;;;;;;20.00;4.22;;;;;;;-146.58;100.00;69501.63;5050080;28;20052;-59
2023/12/29 05:47:17;;;;;;;25.95;4.95;;;;;;;-146.58;100.00;69501.63;5047617;28;20028;-59
2023/12/29 05:49:42;;;;;;;24.65;6.18;;;;;;;-146.58;100.00;69501.63;5050211;28;20045;-59
2023/12/29 05:52:08;;;;;;;18.00;6.13;;;;;;;-146.58;100.00;69501.63;5051588;28;20021;-59
2023/12/29 05:54:34;;;;;;;16.10;5.13;;;;;;;-146.58;100.00;69501.63;5049951;28;20496;-59
2023/12/29 05:57:00;;;;;;;24.70;8.60;;;;;;;-146.58;100.00;69501.63;5042069;28;20112;-59
2023/12/29 05:59:25;;;;;;;20.42;6.90;;;;;;;-146.58;100.00;69501.63;5029395;28;20403;-58
2023/12/29 06:01:50;;;;;;;24.08;6.35;;;;;;;-146.58;100.00;69501.63;5035496;28;20033;-59
2023/12/29 06:04:16;;;;;;;18.85;5.07;;;;;;;-146.58;100.00;69501.63;5028256;28;20033;-59
2023/12/29 06:06:42;;;;;;;34.72;7.68;;;;;;;-146.58;100.00;69501.63;5040593;28;20033;-59
2023/12/29 06:09:09;;;;;;;17.00;4.78;;;;;;;-146.58;100.00;69501.63;5043227;28;20053;-59
2023/12/29 06:11:34;;;;;;;33.25;10.73;;;;;;;-146.58;100.00;69501.63;5029663;28;20037;-59
2023/12/29 06:14:00;;;;;;;20.50;5.70;;;;;;;-146.58;100.00;69501.63;5029124;28;20045;-59
2023/12/29 06:16:26;;;;;;;19.83;6.00;;;;;;;-146.58;100.00;69501.63;5030404;28;20013;-59
2023/12/29 06:18:52;;;;;;;10.05;4.32;;;;;;;-146.58;100.00;69501.63;5028365;28;20499;-59
2023/12/29 06:21:18;;;;;;;26.73;7.88;;;;;;;-146.58;100.00;69501.63;5029911;28;20022;-58
2023/12/29 06:23:44;;;;;;;12.40;5.60;;;;;;;-146.58;100.00;69501.63;5028844;28;20044;-58
2023/12/29 06:26:20;;;;;;;20.33;7.10;;;;;;;-146.58;100.00;69501.63;5029720;28;20079;-59
2023/12/29 06:28:46;;;;;;;17.13;6.30;;;;;;;-146.58;100.00;69501.63;5040690;28;20115;-59
2023/12/29 06:31:12;;;;;;;16.88;6.65;;;;;;;-146.58;100.00;69501.63;5050356;28;20032;-59
2023/12/29 06:33:42;;;;;;;17.33;5.75;;;;;;;-146.58;100.00;69501.63;5049785;28;20029;-59
2023/12/29 06:36:07;;;;;;;24.17;8.02;;;;;;;-146.58;100.00;69501.63;5043195;28;20056;-59
2023/12/29 06:38:33;;;;;;;16.67;4.45;;;;;;;-146.58;100.00;69501.63;5030386;28;20112;-59
2023/12/29 06:41:01;;;;;;;17.23;4.80;;;;;;;-146.58;100.00;69501.63;5028033;28;20041;-59
2023/12/29 06:43:27;;;;;;;16.27;4.57;;;;;;;-146.58;100.00;69501.63;5029625;28;20404;-59
2023/12/29 06:45:52;;;;;;;18.77;5.63;;;;;;;-146.58;100.00;69501.63;5045469;28;20037;-59
2023/12/29 06:48:17;;;;;;;15.10;5.22;;;;;;;-146.58;100.00;69501.63;5033894;28;20026;-59
2023/12/29 06:50:43;;;;;;;17.90;5.15;;;;;;;-146.58;100.00;69501.63;5028161;28;20654;-59
2023/12/29 06:53:08;;;;;;;19.35;5.22;;;;;;;-146.58;100.00;69501.63;5030253;28;20030;-58
2023/12/29 06:55:33;;;;;;;24.92;6.60;;;;;;;-146.58;100.00;69501.63;5027904;28;20649;-59
2023/12/29 06:57:59;;;;;;;24.02;6.93;;;;;;;-146.58;100.00;69501.63;5029217;28;20021;-59
2023/12/29 07:00:24;;;;;;;18.88;5.22;;;;;;;-146.58;100.00;69501.63;5028636;28;20551;-58
2023/12/29 07:02:50;;;;;;;23.42;7.43;;;;;;;-146.58;100.00;69501.63;5028950;28;20037;-59
2023/12/29 07:05:15;;;;;;;14.82;5.57;;;;;;;-146.58;100.00;69501.63;5027993;28;20041;-58
2023/12/29 07:07:40;;;;;;;15.10;4.35;;;;;;;-146.58;100.00;69501.63;5029982;28;20028;-58
2023/12/29 07:10:06;;;;;;;21.02;7.00;;;;;;;-146.58;100.00;69501.63;5027829;28;20053;-58
2023/12/29 07:12:32;;;;;;;10.68;4.45;;;;;;;-146.58;100.00;69501.63;5028917;28;20171;-59
2023/12/29 07:14:57;;;;;;;13.13;5.88;;;;;;;-146.58;100.00;69501.63;5028565;28;20038;-58
2023/12/29 07:17:22;;;;;;;13.73;4.15;;;;;;;-146.58;100.00;69501.63;5028913;28;20029;-58
2023/12/29 07:19:49;;;;;;;10.00;4.13;;;;;;;-146.58;100.00;69501.63;5040143;28;20380;-59
2023/12/29 07:22:15;;;;;;;10.52;4.88;;;;;;;-146.58;100.00;69501.63;5044400;28;20108;-58
2023/12/29 07:24:40;;;;;;;17.63;6.25;;;;;;;-146.58;100.00;69501.63;5027689;28;20041;-58
2023/12/29 07:27:07;;;;;;;17.15;4.93;;;;;;;-146.58;100.00;69501.63;5026813;28;20392;-58
2023/12/29 07:29:33;;;;;;;10.77;4.82;;;;;;;-146.58;100.00;69501.63;5018803;28;20049;-58
2023/12/29 07:31:59;;;;;;;16.15;5.72;;;;;;;-146.58;100.00;69501.63;5013889;28;20029;-58
2023/12/29 07:34:24;;;;;;;22.27;5.53;;;;;;;-146.58;100.00;69501.63;5027588;28;20046;-59
2023/12/29 07:36:50;;;;;;;9.68;4.78;;;;;;;-146.58;100.00;69501.63;5029197;28;20476;-58
2023/12/29 07:39:15;;;;;;;12.00;5.55;;;;;;;-146.58;100.00;69501.63;5027454;28;20056;-58
2023/12/29 07:41:42;;;;;;;13.80;4.63;;;;;;;-146.58;100.00;69501.63;5028129;28;20536;-58
2023/12/29 07:44:10;;;;;;;17.90;4.18;;;;;;;-146.58;100.00;69501.63;5028302;28;20120;-59
2023/12/29 07:46:35;;;;;;;14.65;8.50;;;;;;;-146.58;100.00;69501.63;5028070;28;20053;-58
2023/12/29 07:49:00;;;;;;;16.23;4.53;;;;;;;-146.58;100.00;69501.63;5025153;28;20072;-59
2023/12/29 07:51:26;;;;;;;12.77;4.53;;;;;;;-146.58;100.00;69501.63;5027941;28;20022;-59
2023/12/29 07:53:51;;;;;;;23.73;6.18;;;;;;;-146.58;100.00;69501.63;5027457;28;20032;-59
2023/12/29 07:56:17;;;;;;;9.57;3.45;;;;;;;-146.58;100.00;69501.63;5028121;28;20017;-59
2023/12/29 07:58:42;;;;;;;9.07;3.53;;;;;;;-146.58;100.00;69501.63;5028180;28;20022;-59
2023/12/29 08:01:08;;;;;;;7.90;2.90;;;;;;;-146.58;100.00;69501.63;5026422;28;20029;-59
2023/12/29 08:03:33;;;;;;;15.43;4.43;;;;;;;-146.58;100.00;69501.63;5028414;28;20030;-59
2023/12/29 08:05:59;;;;;;;11.80;4.85;;;;;;;-146.58;100.00;69501.63;5028080;28;20049;-59
2023/12/29 08:08:24;;;;;;;12.35;3.65;;;;;;;-146.58;100.00;69501.63;5028496;28;20401;-59
2023/12/29 08:10:49;;;;;;;7.10;3.47;;;;;;;-146.58;100.00;69501.63;5033217;28;20057;-59
2023/12/29 08:13:15;;;;;;;11.98;5.82;;;;;;;-146.58;100.00;69501.63;5033017;28;20028;-59
2023/12/29 08:15:41;;;;;;;18.60;7.65;;;;;;;-146.58;100.00;69501.63;5030425;28;20038;-59
2023/12/29 08:18:06;;;;;;;12.77;4.25;;;;;;;-146.58;100.00;69501.63;5031770;28;20017;-59
2023/12/29 08:20:31;;;;;;;15.88;6.57;;;;;;;-146.58;100.00;69501.63;5031208;28;20115;-59
2023/12/29 08:22:57;;;;;;;11.25;3.92;;;;;;;-146.58;100.00;69501.63;5036327;28;20028;-59
2023/12/29 08:25:22;;;;;;;11.18;4.38;;;;;;;-146.58;100.00;69501.63;5033398;28;20489;-59
2023/12/29 08:27:48;;;;;;;12.70;5.18;;;;;;;-146.58;100.00;69501.63;5038288;28;20080;-59
2023/12/29 08:30:13;;;;;;;12.07;4.60;;;;;;;-146.58;100.00;69501.63;5031227;28;20049;-59
2023/12/29 08:32:39;;;;;;;30.15;8.30;;;;;;;-146.58;100.00;69501.63;5030429;28;20100;-60
2023/12/29 08:35:06;;;;;;;20.30;6.72;;;;;;;-146.58;100.00;69501.63;5031179;28;20045;-59
2023/12/29 08:37:33;;;;;;;9.80;5.22;;;;;;;-146.58;100.00;69501.63;5032123;28;20104;-59
2023/12/29 08:39:59;;;;;;;12.57;4.60;;;;;;;-146.58;100.00;69501.63;5031164;28;20052;-59
2023/12/29 08:42:24;;;;;;;16.70;4.43;;;;;;;-146.58;100.00;69501.63;5031597;28;20029;-59
2023/12/29 08:44:49;;;;;;;19.23;5.28;;;;;;;-146.58;100.00;69501.63;5030234;28;20523;-59
2023/12/29 08:47:15;;;;;;;13.63;5.60;;;;;;;-146.58;100.00;69501.63;5031610;28;20024;-59
2023/12/29 08:49:43;;;;;;;16.02;6.28;;;;;;;-146.58;100.00;69501.63;5029081;28;20404;-59
2023/12/29 08:52:09;;;;;;;15.23;3.80;;;;;;;-146.58;100.00;69501.63;5036293;28;20033;-59
2023/12/29 08:54:34;;;;;;;9.35;4.85;;;;;;;-146.58;100.00;69501.63;5029447;28;20052;-59
2023/12/29 08:57:00;;;;;;;7.78;3.85;;;;;;;-146.58;100.00;69501.63;5031098;28;20025;-59
2023/12/29 08:59:25;;;;;;;13.90;5.22;;;;;;;-146.58;100.00;69501.63;5027821;28;20050;-59
2023/12/29 09:01:50;;;;;;;9.40;5.95;;;;;;;-146.58;100.00;69501.63;5028314;28;20017;-59
2023/12/29 09:04:16;;;;;;;13.05;4.85;;;;;;;-146.58;100.00;69501.63;5011076;28;20509;-59
2023/12/29 09:06:42;;;;;;;15.38;4.45;;;;;;;-146.58;100.00;69501.63;5019475;28;20028;-59
2023/12/29 09:09:10;;;;;;;20.67;5.50;;;;;;;-146.58;100.00;69501.63;5044799;28;20061;-59
2023/12/29 09:11:35;;;;;;;;;;;;;;;-146.58;100.00;69501.63;5032531;28;20048;-60
2023/12/29 09:14:01;;;;;;;7.07;3.93;;;;;;;-146.58;100.00;69501.63;5029855;28;19936;-59
2023/12/29 09:16:26;;;;;;;16.35;5.80;;;;;;;-146.58;100.00;69501.63;5030871;28;20517;-59
2023/12/29 09:18:51;;;;;;;8.88;3.33;;;;;;;-146.58;100.00;69501.63;5029131;28;20028;-59
2023/12/29 09:21:17;;;;;;;8.75;4.63;;;;;;;-146.58;100.00;69501.63;5045133;28;20021;-59
2023/12/29 09:23:42;;;;;;;11.52;3.90;;;;;;;-146.58;100.00;69501.63;5048502;28;20029;-58
2023/12/29 09:26:08;;;;;;;16.60;7.00;;;;;;;-146.58;100.00;69501.63;5044428;28;20040;-59
2023/12/29 09:28:34;;;;;;;8.82;4.45;;;;;;;-146.58;100.00;69501.63;5030433;28;20037;-59
2023/12/29 09:31:00;;;;;;;12.23;3.85;;;;;;;-146.58;100.00;69501.63;5027921;28;20041;-59
2023/12/29 09:33:25;;;;;;;7.53;3.65;;;;;;;-146.58;100.00;69501.63;5030972;28;20036;-59
2023/12/29 09:35:51;;;;;;;17.23;5.35;;;;;;;-146.58;100.00;69501.63;5030304;28;20045;-59
2023/12/29 09:38:16;;;;;;;10.02;4.88;;;;;;;-146.58;100.00;69501.63;5030711;28;20037;-59
2023/12/29 09:40:42;;;;;;;13.60;4.05;;;;;;;-146.58;100.00;69501.63;5029455;28;20103;-59
2023/12/29 09:43:09;;;;;;;13.40;4.85;;;;;;;-146.58;100.00;69501.63;5031397;28;20377;-58
2023/12/29 09:45:38;;;;;;;29.50;6.97;;;;;;;-146.58;100.00;69501.63;5028876;28;20048;-59
2023/12/29 09:48:07;;;;;;;13.20;6.68;;;;;;;-146.58;100.00;69501.63;5031004;28;20071;-59
2023/12/29 09:50:35;;;;;;;9.30;4.38;;;;;;;-146.58;100.00;69501.63;5035462;28;20472;-59
2023/12/29 09:53:02;;;;;;;7.72;4.43;;;;;;;-146.58;100.00;69501.63;5026744;28;20040;-59
2023/12/29 09:55:28;;;;;;;7.38;3.78;;;;;;;-146.58;100.00;69501.63;5028732;28;20048;-59
2023/12/29 09:57:54;;;;;;;11.77;3.63;;;;;;;-146.58;100.00;69501.63;5030606;28;20037;-59
2023/12/29 10:00:20;;;;;;;6.22;4.03;;;;;;;-146.58;100.00;69501.63;5038388;28;20043;-59
2023/12/29 10:02:46;;;;;;;7.00;3.05;;;;;;;-146.58;100.00;69501.63;5050424;28;20017;-59
2023/12/29 10:05:11;;;;;;;5.88;2.75;;;;;;;-146.58;100.00;69501.63;5049352;28;20049;-59
2023/12/29 10:07:38;;;;;;;5.10;3.65;;;;;;;-146.58;100.00;69501.63;5051230;28;20098;-59
2023/12/29 10:10:04;;;;;;;11.27;3.63;;;;;;;-146.58;100.00;69501.63;5049170;28;20041;-59
2023/12/29 10:12:31;;;;;;;7.32;4.40;;;;;;;-146.58;100.00;69501.63;5031686;28;20057;-59
2023/12/29 10:15:09;;;;;;;8.23;4.55;;;;;;;-146.58;100.00;69501.63;5029223;28;20042;-58
2023/12/29 10:17:53;;;;;;;6.53;3.53;;;;;;;-146.58;100.00;69501.63;5030715;28;20032;-58
2023/12/29 10:20:48;;;;;;;5.93;3.47;;;;;;;-146.58;100.00;69501.63;5036695;28;20530;-59
2023/12/29 10:23:26;;;;;;;18.30;3.92;;;;;;;-146.58;100.00;69501.63;5030461;28;20037;-58
2023/12/29 10:25:52;;;;;;;10.73;4.40;;;;;;;-146.58;100.00;69501.63;5029358;28;20432;-59
2023/12/29 10:28:18;;;;;;;6.30;3.00;;;;;;;-146.58;100.00;69501.63;5030766;28;20048;-59
2023/12/29 10:30:43;;;;;;;5.55;2.30;;;;;;;-146.58;100.00;69501.63;5028713;28;20489;-59
2023/12/29 10:33:09;;;;;;;3.40;3.10;;;;;;;-146.58;100.00;69501.63;5028273;28;20025;-58
2023/12/29 10:35:37;;;;;;;10.20;4.85;;;;;;;-146.58;100.00;69501.63;5029589;28;20037;-59
2023/12/29 10:38:12;;;;;;;4.40;2.42;;;;;;;-146.58;100.00;69501.63;5030335;28;20107;-59
2023/12/29 10:40:38;;;;;;;5.72;2.85;;;;;;;-146.58;100.00;69501.63;5028647;28;20049;-59
2023/12/29 10:43:09;;;;;;;5.65;3.05;;;;;;;-146.58;100.00;69501.63;5030842;28;20022;-59
2023/12/29 10:45:38;;;;;;;8.07;2.58;;;;;;;-146.58;100.00;69501.63;5028732;28;20052;-59
2023/12/29 10:48:04;;;;;;;5.22;3.38;;;;;;;-146.58;100.00;69501.63;5030267;28;20029;-59
2023/12/29 10:50:29;;;;;;;6.97;3.35;;;;;;;-146.58;100.00;69501.63;5029023;28;20037;-59
2023/12/29 10:53:14;;;;;;;7.10;2.35;;;;;;;-146.58;100.00;69501.63;5030685;28;20362;-58
2023/12/29 10:55:40;;;;;;;11.00;2.53;;;;;;;-146.58;100.00;69501.63;5031443;28;20037;-59
2023/12/29 10:58:05;;;;;;;2.35;2.17;;;;;;;-146.58;100.00;69501.63;5048255;28;20024;-58
2023/12/29 11:00:32;;;;;;;7.63;2.63;;;;;;;-146.58;100.00;69501.63;5048169;28;20579;-59